createdAt,value
2023-01-11T00:00:46.179Z,4.40
2023-01-11T00:03:17.760Z,4.30
2023-01-11T00:05:44.825Z,4.21
2023-01-11T00:08:11.753Z,4.13
2023-01-11T00:10:38.843Z,4.06
2023-01-11T00:13:05.775Z,3.99
2023-01-11T00:15:33.823Z,3.94
2023-01-11T00:18:02.235Z,3.89
2023-01-11T00:20:28.700Z,3.84
2023-01-11T00:22:55.360Z,3.78
2023-01-11T00:25:21.918Z,3.72
2023-01-11T00:27:48.833Z,3.66
2023-01-11T00:30:16.802Z,3.61
2023-01-11T00:32:43.518Z,3.56
2023-01-11T00:35:10.592Z,3.52
2023-01-11T00:37:37.282Z,3.47
2023-01-11T00:40:04.481Z,3.42
2023-01-11T00:43:03.312Z,3.39
2023-01-11T00:45:48.620Z,3.34
2023-01-11T00:48:15.195Z,3.29
2023-01-11T00:50:41.718Z,3.25
2023-01-11T00:53:09.123Z,3.22
2023-01-11T00:55:36.018Z,3.20
2023-01-11T00:58:02.983Z,3.17
2023-01-11T01:00:30.018Z,3.14
2023-01-11T01:02:56.960Z,3.12
2023-01-11T01:05:23.848Z,3.10
2023-01-11T01:07:50.383Z,3.08
2023-01-11T01:10:17.739Z,3.06
2023-01-11T01:13:03.338Z,3.04
2023-01-11T01:15:30.709Z,3.02
2023-01-11T01:17:57.253Z,3.00
2023-01-11T01:20:24.775Z,2.98
2023-01-11T01:22:51.632Z,2.95
2023-01-11T01:25:18.444Z,2.90
2023-01-11T01:27:45.075Z,2.87
2023-01-11T01:30:11.841Z,2.84
2023-01-11T01:32:38.487Z,2.81
2023-01-11T01:35:05.511Z,2.79
2023-01-11T01:37:32.090Z,2.75
2023-01-11T01:39:58.746Z,2.73
2023-01-11T01:42:25.547Z,2.70
2023-01-11T01:45:01.694Z,2.69
2023-01-11T01:47:36.834Z,2.68
2023-01-11T01:50:12.296Z,2.67
2023-01-11T01:52:39.856Z,2.64
2023-01-11T01:55:12.132Z,2.62
2023-01-11T01:57:42.850Z,2.60
2023-01-11T02:00:10.504Z,2.58
2023-01-11T02:02:39.694Z,2.55
2023-01-11T02:05:08.111Z,2.52
2023-01-11T02:07:37.353Z,2.49
2023-01-11T02:10:08.960Z,2.45
2023-01-11T02:12:40.256Z,2.42
2023-01-11T02:15:09.753Z,2.38
2023-01-11T02:17:36.249Z,2.35
2023-01-11T02:20:28.663Z,2.34
2023-01-11T02:23:04.393Z,2.32
2023-01-11T02:25:58.002Z,2.27
2023-01-11T02:29:02.416Z,2.23
2023-01-11T02:31:34.957Z,2.20
2023-01-11T02:34:50.941Z,2.16
2023-01-11T02:37:23.512Z,2.12
2023-01-11T02:40:08.486Z,2.09
2023-01-11T02:43:07.309Z,2.07
2023-01-11T02:45:51.868Z,2.04
2023-01-11T02:48:31.129Z,2.02
2023-01-11T02:51:10.403Z,2.00
2023-01-11T02:54:01.460Z,1.98
2023-01-11T02:56:32.962Z,1.95
2023-01-11T02:59:00.771Z,1.92
2023-01-11T03:01:27.544Z,1.90
2023-01-11T03:03:54.115Z,1.89
2023-01-11T03:06:22.397Z,1.89
2023-01-11T03:09:07.368Z,1.88
2023-01-11T03:12:19.930Z,1.87
2023-01-11T03:15:01.306Z,1.86
2023-01-11T03:17:36.716Z,1.86
2023-01-11T03:20:30.608Z,1.86
2023-01-11T03:23:25.593Z,1.86
2023-01-11T03:26:02.038Z,1.85
2023-01-11T03:28:39.152Z,1.84
2023-01-11T03:31:37.790Z,1.81
2023-01-11T03:34:14.872Z,1.76
2023-01-11T03:36:50.081Z,1.73
2023-01-11T03:39:26.300Z,1.72
2023-01-11T03:41:57.640Z,1.70
2023-01-11T03:44:27.449Z,1.68
2023-01-11T03:47:01.587Z,1.66
2023-01-11T03:49:32.314Z,1.65
2023-01-11T03:52:01.740Z,1.63
2023-01-11T03:54:29.768Z,1.62
2023-01-11T03:57:08.077Z,1.62
2023-01-11T03:59:34.957Z,1.62
2023-01-11T04:02:01.880Z,1.62
2023-01-11T04:04:28.856Z,1.62
2023-01-11T04:06:55.830Z,1.63
2023-01-11T04:09:22.353Z,1.62
2023-01-11T04:11:48.934Z,1.62
2023-01-11T04:14:15.552Z,1.61
2023-01-11T04:16:42.102Z,1.60
2023-01-11T04:19:08.584Z,1.59
2023-01-11T04:21:35.179Z,1.58
2023-01-11T04:24:01.754Z,1.58
2023-01-11T04:26:28.287Z,1.58
2023-01-11T04:28:54.804Z,1.59
2023-01-11T04:31:21.400Z,1.61
2023-01-11T04:33:47.958Z,1.65
2023-01-11T04:36:14.497Z,1.68
2023-01-11T04:38:41.010Z,1.72
2023-01-11T04:41:25.966Z,1.76
2023-01-11T04:43:56.023Z,1.80
2023-01-11T04:46:23.776Z,1.83
2023-01-11T04:48:50.803Z,1.87
2023-01-11T04:51:17.340Z,1.89
2023-01-11T04:53:47.343Z,1.93
2023-01-11T04:56:14.413Z,1.97
2023-01-11T04:58:40.995Z,2.01
2023-01-11T05:01:12.580Z,2.04
2023-01-11T05:03:39.206Z,2.10
2023-01-11T05:06:06.798Z,2.16
2023-01-11T05:08:34.662Z,2.19
2023-01-11T05:11:06.892Z,2.24
2023-01-11T05:13:43.027Z,2.29
2023-01-11T05:16:12.415Z,2.33
2023-01-11T05:18:40.908Z,2.37
2023-01-11T05:21:08.982Z,2.42
2023-01-11T05:23:36.153Z,2.46
2023-01-11T05:26:06.477Z,2.49
2023-01-11T05:28:33.841Z,2.52
2023-01-11T05:31:00.785Z,2.54
2023-01-11T05:33:27.748Z,2.55
2023-01-11T05:36:04.371Z,2.57
2023-01-11T05:38:30.960Z,2.61
2023-01-11T05:41:03.033Z,2.63
2023-01-11T05:43:30.788Z,2.66
2023-01-11T05:45:58.652Z,2.70
2023-01-11T05:48:25.459Z,2.74
2023-01-11T05:50:53.816Z,2.80
2023-01-11T05:53:24.622Z,2.87
2023-01-11T05:55:55.779Z,2.95
2023-01-11T05:58:25.116Z,3.00
2023-01-11T06:00:54.288Z,3.05
2023-01-11T06:03:23.431Z,3.11
2023-01-11T06:05:51.258Z,3.16
2023-01-11T06:08:18.318Z,3.21
2023-01-11T06:10:52.240Z,3.29
2023-01-11T06:13:27.796Z,3.37
2023-01-11T06:16:05.775Z,3.46
2023-01-11T06:18:38.392Z,3.53
2023-01-11T06:21:06.119Z,3.59
2023-01-11T06:23:34.100Z,3.65
2023-01-11T06:26:06.340Z,3.70
2023-01-11T06:28:33.088Z,3.75
2023-01-11T06:30:59.888Z,3.80
2023-01-11T06:33:27.941Z,3.84
2023-01-11T06:35:55.191Z,3.86
2023-01-11T06:38:23.300Z,3.88
2023-01-11T06:40:58.213Z,3.90
2023-01-11T06:43:26.188Z,3.92
2023-01-11T06:45:52.861Z,3.94
2023-01-11T06:48:20.867Z,3.96
2023-01-11T06:50:51.927Z,3.98
2023-01-11T06:53:18.938Z,4.01
2023-01-11T06:55:50.389Z,4.04
2023-01-11T06:58:17.301Z,4.08
2023-01-11T07:00:44.130Z,4.12
2023-01-11T07:03:12.346Z,4.19
2023-01-11T07:05:39.684Z,4.37
2023-01-11T07:08:06.311Z,4.45
2023-01-11T07:10:33.056Z,4.50
2023-01-11T07:12:59.604Z,4.56
2023-01-11T07:15:26.339Z,4.63
2023-01-11T07:17:54.891Z,4.71
2023-01-11T07:20:22.657Z,4.80
2023-01-11T07:22:50.060Z,4.88
2023-01-11T07:25:17.752Z,4.95
2023-01-11T07:27:44.497Z,5.02
2023-01-11T07:30:11.420Z,5.08
2023-01-11T07:32:38.245Z,5.15
2023-01-11T07:35:05.213Z,5.22
2023-01-11T07:37:32.097Z,5.28
2023-01-11T07:39:58.757Z,5.36
2023-01-11T07:42:44.193Z,5.42
2023-01-11T07:45:10.915Z,5.49
2023-01-11T07:47:37.353Z,5.57
2023-01-11T07:50:04.326Z,5.65
2023-01-11T07:52:30.847Z,5.73
2023-01-11T07:55:01.638Z,5.79
2023-01-11T07:57:29.753Z,5.87
2023-01-11T07:59:56.365Z,5.94
2023-01-11T08:02:23.382Z,6.03
2023-01-11T08:04:50.048Z,6.11
2023-01-11T08:07:16.498Z,6.18
2023-01-11T08:09:42.997Z,6.25
2023-01-11T08:12:28.043Z,6.41
2023-01-11T08:14:54.504Z,6.63
2023-01-11T08:17:21.075Z,6.79
2023-01-11T08:19:47.617Z,7.01
2023-01-11T08:22:14.160Z,7.33
2023-01-11T08:24:40.656Z,7.58
2023-01-11T08:27:07.276Z,7.86
2023-01-11T08:29:34.014Z,8.02
2023-01-11T08:32:00.601Z,8.15
2023-01-11T08:34:28.368Z,8.32
2023-01-11T08:36:56.852Z,8.51
2023-01-11T08:39:24.028Z,8.51
2023-01-11T08:41:50.515Z,8.40
2023-01-11T08:44:22.378Z,8.30
2023-01-11T08:46:59.517Z,8.23
2023-01-11T08:49:26.008Z,8.17
2023-01-11T08:51:52.510Z,8.13
2023-01-11T08:54:19.049Z,8.07
2023-01-11T08:56:45.541Z,8.01
2023-01-11T08:59:12.068Z,7.96
2023-01-11T09:01:39.168Z,7.95
2023-01-11T09:04:15.774Z,7.96
2023-01-11T09:06:50.972Z,7.97
2023-01-11T09:09:17.568Z,7.97
2023-01-11T09:11:56.784Z,7.94
2023-01-11T09:14:25.198Z,7.89
2023-01-11T09:16:53.020Z,7.89
2023-01-11T09:19:20.271Z,7.86
2023-01-11T09:21:47.143Z,7.86
2023-01-11T09:24:14.413Z,7.84
2023-01-11T09:26:42.727Z,7.84
2023-01-11T09:29:10.617Z,7.83
2023-01-11T09:31:37.337Z,7.84
2023-01-11T09:34:06.157Z,7.87
2023-01-11T09:36:35.176Z,7.91
2023-01-11T09:39:05.620Z,7.94
2023-01-11T09:41:45.834Z,7.98
2023-01-11T09:44:18.569Z,8.03
2023-01-11T09:46:50.659Z,8.08
2023-01-11T09:49:24.600Z,8.13
2023-01-11T09:51:53.927Z,8.22
2023-01-11T09:54:26.552Z,8.30
2023-01-11T09:57:25.966Z,8.40
2023-01-11T10:00:23.301Z,8.47
2023-01-11T10:03:22.888Z,8.56
2023-01-11T10:05:59.465Z,8.65
2023-01-11T10:18:28.166Z,8.85
2023-01-11T10:18:34.073Z,8.92
2023-01-11T10:20:41.035Z,9.01
2023-01-11T10:23:20.897Z,9.08
2023-01-11T10:25:51.037Z,9.13
2023-01-11T10:28:27.481Z,9.16
2023-01-11T10:30:58.456Z,9.17
2023-01-11T10:33:51.459Z,9.19
2023-01-11T10:36:56.130Z,9.18
2023-01-11T10:40:26.470Z,9.22
2023-01-11T10:43:03.139Z,9.30
2023-01-11T10:45:42.795Z,9.36
2023-01-11T10:48:19.964Z,9.35
2023-01-11T10:51:00.907Z,9.34
2023-01-11T10:53:36.009Z,9.38
2023-01-11T10:56:26.793Z,9.36
2023-01-11T10:59:42.967Z,9.34
2023-01-11T11:02:17.140Z,9.35
2023-01-11T11:05:01.623Z,9.34
2023-01-11T11:07:40.035Z,9.30
2023-01-11T11:10:32.737Z,9.23
2023-01-11T11:13:15.996Z,9.18
2023-01-11T11:15:49.924Z,9.16
2023-01-11T11:18:16.462Z,9.13
2023-01-11T11:20:44.456Z,9.09
2023-01-11T11:23:17.270Z,9.04
2023-01-11T11:25:55.828Z,8.95
2023-01-11T11:28:22.271Z,8.90
2023-01-11T11:30:52.471Z,8.87
2023-01-11T11:33:35.690Z,8.87
2023-01-11T11:36:05.249Z,8.84
2023-01-11T11:38:37.593Z,8.79
2023-01-11T11:41:16.351Z,8.78
2023-01-11T11:43:45.901Z,8.76
2023-01-11T11:46:25.378Z,8.74
2023-01-11T11:49:16.705Z,8.76
2023-01-11T11:51:46.438Z,8.77
2023-01-11T11:54:26.387Z,8.82
2023-01-11T11:56:55.207Z,8.86
2023-01-11T11:59:24.227Z,8.86
2023-01-11T12:02:05.638Z,8.88
2023-01-11T12:04:46.621Z,8.87
2023-01-11T12:07:23.168Z,8.83
2023-01-11T12:10:02.269Z,8.84
2023-01-11T12:12:32.766Z,8.85
2023-01-11T12:15:19.327Z,8.81
2023-01-11T12:17:46.678Z,8.79
2023-01-11T12:20:22.334Z,8.73
2023-01-11T12:22:52.941Z,8.67
2023-01-11T12:25:21.610Z,8.61
2023-01-11T12:28:25.306Z,8.58
2023-01-11T12:31:03.381Z,8.50
2023-01-11T12:33:55.369Z,8.46
2023-01-11T12:36:22.193Z,8.42
2023-01-11T12:39:53.721Z,8.37
2023-01-11T12:42:31.426Z,8.30
2023-01-11T12:45:19.699Z,8.23
2023-01-11T12:48:10.311Z,8.22
2023-01-11T12:51:01.427Z,8.22
2023-01-11T12:53:48.216Z,8.19
2023-01-11T12:56:45.261Z,8.15
2023-01-11T13:00:05.455Z,8.12
2023-01-11T13:02:44.811Z,8.06
2023-01-11T13:05:28.717Z,7.98
2023-01-11T13:08:16.193Z,7.96
2023-01-11T13:11:00.741Z,7.94
2023-01-11T13:13:50.365Z,7.91
2023-01-11T13:16:24.351Z,7.91
2023-01-11T13:19:01.207Z,7.91
2023-01-11T13:21:35.425Z,7.86
2023-01-11T13:24:09.825Z,7.83
2023-01-11T13:26:40.350Z,7.87
2023-01-11T13:29:15.500Z,7.96
2023-01-11T13:31:45.512Z,8.16
2023-01-11T13:34:36.683Z,8.33
2023-01-11T13:37:13.461Z,8.42
2023-01-11T13:40:03.901Z,8.45
2023-01-11T13:42:36.821Z,8.59
2023-01-11T13:45:25.465Z,8.68
2023-01-11T13:47:57.495Z,8.76
2023-01-11T13:50:43.704Z,8.67
2023-01-11T13:53:10.243Z,8.55
2023-01-11T13:55:39.472Z,8.44
2023-01-11T13:58:16.974Z,8.33
2023-01-11T14:00:55.274Z,8.27
2023-01-11T14:03:42.314Z,8.21
2023-01-11T14:06:36.799Z,8.15
2023-01-11T14:09:15.505Z,8.08
2023-01-11T14:12:13.054Z,8.04
2023-01-11T14:14:54.847Z,8.02
2023-01-11T14:17:42.213Z,8.01
2023-01-11T14:20:12.237Z,7.98
2023-01-11T14:22:55.164Z,7.92
2023-01-11T14:25:27.180Z,7.87
2023-01-11T14:28:08.834Z,7.83
2023-01-11T14:31:04.852Z,7.80
2023-01-11T14:33:53.038Z,7.76
2023-01-11T14:36:38.208Z,7.72
2023-01-11T14:39:23.145Z,7.68
2023-01-11T14:42:05.767Z,7.64
2023-01-11T14:44:55.366Z,7.61
2023-01-11T14:48:09.155Z,7.56
2023-01-11T14:51:07.697Z,7.51
2023-01-11T14:53:51.011Z,7.50
2023-01-11T14:56:42.720Z,7.46
2023-01-11T14:59:30.977Z,7.40
2023-01-11T15:02:03.691Z,7.33
2023-01-11T15:04:57.767Z,7.26
2023-01-11T15:07:30.272Z,7.20
2023-01-11T15:10:05.158Z,7.16
2023-01-11T15:12:39.511Z,7.11
2023-01-11T15:15:12.135Z,7.08
2023-01-11T15:17:57.905Z,7.05
2023-01-11T15:20:25.963Z,7.05
2023-01-11T15:23:01.663Z,7.02
2023-01-11T15:25:32.885Z,7.01
2023-01-11T15:28:24.797Z,6.98
2023-01-11T15:30:52.508Z,6.95
2023-01-11T15:33:19.078Z,6.93
2023-01-11T15:35:54.632Z,6.94
2023-01-11T15:38:24.531Z,6.94
2023-01-11T15:40:53.961Z,6.94
2023-01-11T15:44:25.396Z,6.94
2023-01-11T15:47:07.026Z,6.95
2023-01-11T15:50:08.125Z,6.95
2023-01-11T15:52:55.996Z,6.94
2023-01-11T15:55:31.563Z,6.94
2023-01-11T15:58:16.912Z,6.94
2023-01-11T16:00:55.535Z,6.93
2023-01-11T16:03:40.930Z,6.94
2023-01-11T16:06:16.652Z,6.94
2023-01-11T16:09:20.805Z,6.95
2023-01-11T16:12:01.320Z,6.99
2023-01-11T16:14:50.004Z,7.04
2023-01-11T16:17:21.575Z,7.07
2023-01-11T16:19:54.605Z,7.08
2023-01-11T16:22:25.055Z,7.10
2023-01-11T16:24:55.920Z,7.12
2023-01-11T16:27:28.739Z,7.12
2023-01-11T16:29:56.119Z,7.14
2023-01-11T16:32:26.457Z,7.16
2023-01-11T16:34:54.467Z,7.16
2023-01-11T16:37:30.268Z,7.17
2023-01-11T16:40:03.977Z,7.18
2023-01-11T16:42:32.673Z,7.19
2023-01-11T16:45:03.273Z,7.21
2023-01-11T16:47:29.803Z,7.23
2023-01-11T16:50:24.453Z,7.25
2023-01-11T16:52:56.751Z,7.29
2023-01-11T16:55:39.223Z,7.33
2023-01-11T16:58:20.065Z,7.36
2023-01-11T17:00:59.454Z,7.37
2023-01-11T17:03:31.521Z,7.40
2023-01-11T17:06:02.667Z,7.43
2023-01-11T17:08:32.222Z,7.45
2023-01-11T17:11:16.450Z,7.46
2023-01-11T17:14:07.522Z,7.47
2023-01-11T17:16:40.213Z,7.47
2023-01-11T17:19:14.516Z,7.47
2023-01-11T17:21:47.964Z,7.47
2023-01-11T17:24:16.444Z,7.48
2023-01-11T17:26:47.176Z,7.48
2023-01-11T17:29:27.861Z,7.49
2023-01-11T17:31:56.444Z,7.50
2023-01-11T17:34:26.943Z,7.53
2023-01-11T17:36:54.313Z,7.54
2023-01-11T17:39:27.269Z,7.51
2023-01-11T17:42:14.097Z,7.50
2023-01-11T17:45:00.025Z,7.49
2023-01-11T17:47:28.348Z,7.50
2023-01-11T17:49:57.050Z,7.51
2023-01-11T17:52:25.605Z,7.54
2023-01-11T17:55:18.639Z,7.55
2023-01-11T17:58:09.793Z,7.56
2023-01-11T18:00:36.802Z,7.57
2023-01-11T18:03:15.077Z,7.59
2023-01-11T18:05:42.310Z,7.61
2023-01-11T18:08:18.957Z,7.61
2023-01-11T18:10:53.969Z,7.62
2023-01-11T18:13:28.185Z,7.63
2023-01-11T18:15:54.741Z,7.65
2023-01-11T18:18:44.582Z,7.66
2023-01-11T18:21:49.686Z,7.65
2023-01-11T18:24:23.362Z,7.64
2023-01-11T18:27:04.450Z,7.63
2023-01-11T18:29:37.066Z,7.63
2023-01-11T18:32:05.380Z,7.63
2023-01-11T18:34:31.961Z,7.63
2023-01-11T18:37:02.520Z,7.63
2023-01-11T18:39:29.158Z,7.63
2023-01-11T18:42:07.459Z,7.61
2023-01-11T18:44:40.118Z,7.61
2023-01-11T18:47:22.078Z,7.60
2023-01-11T18:49:50.750Z,7.62
2023-01-11T18:52:19.727Z,7.62
2023-01-11T18:54:46.701Z,7.62
2023-01-11T18:57:13.201Z,7.62
2023-01-11T18:59:39.663Z,7.61
2023-01-11T19:02:16.722Z,7.60
2023-01-11T19:04:45.011Z,7.59
2023-01-11T19:07:12.637Z,7.59
2023-01-11T19:09:39.548Z,7.59
2023-01-11T19:12:06.577Z,7.58
2023-01-11T19:14:33.170Z,7.57
2023-01-11T19:16:59.818Z,7.56
2023-01-11T19:19:26.279Z,7.55
2023-01-11T19:21:53.746Z,7.54
2023-01-11T19:24:20.164Z,7.53
2023-01-11T19:26:46.714Z,7.51
2023-01-11T19:29:18.111Z,7.52
2023-01-11T19:31:45.531Z,7.52
2023-01-11T19:34:12.464Z,7.50
2023-01-11T19:36:39.976Z,7.48
2023-01-11T19:39:07.638Z,7.47
2023-01-11T19:41:53.603Z,7.43
2023-01-11T19:44:26.097Z,7.41
2023-01-11T19:47:00.459Z,7.40
2023-01-11T19:49:36.067Z,7.37
2023-01-11T19:52:03.363Z,7.36
2023-01-11T19:54:29.839Z,7.36
2023-01-11T19:56:56.253Z,7.35
2023-01-11T19:59:22.825Z,7.35
2023-01-11T20:01:49.394Z,7.32
2023-01-11T20:04:15.973Z,7.32
2023-01-11T20:06:51.048Z,7.34
2023-01-11T20:09:18.576Z,7.36
2023-01-11T20:11:45.863Z,7.36
2023-01-11T20:14:12.342Z,7.35
2023-01-11T20:16:38.864Z,7.36
2023-01-11T20:19:05.411Z,7.36
2023-01-11T20:21:33.537Z,7.36
2023-01-11T20:24:01.355Z,7.37
2023-01-11T20:26:29.959Z,7.38
2023-01-11T20:28:57.463Z,7.37
2023-01-11T20:31:27.565Z,7.35
2023-01-11T20:33:54.920Z,7.37
2023-01-11T20:36:23.174Z,7.36
2023-01-11T20:38:50.248Z,7.35
2023-01-11T20:41:55.217Z,7.36
2023-01-11T20:44:31.334Z,7.35
2023-01-11T20:46:58.832Z,7.34
2023-01-11T20:49:28.517Z,7.34
2023-01-11T20:51:55.915Z,7.33
2023-01-11T20:54:22.912Z,7.33
2023-01-11T20:56:49.518Z,7.35
2023-01-11T20:59:19.292Z,7.37
2023-01-11T21:01:47.330Z,7.38
2023-01-11T21:04:14.306Z,7.40
2023-01-11T21:06:43.284Z,7.40
2023-01-11T21:09:12.956Z,7.39
2023-01-11T21:11:39.797Z,7.40
2023-01-11T21:14:11.303Z,7.40
2023-01-11T21:16:43.431Z,7.41
2023-01-11T21:19:12.570Z,7.41
2023-01-11T21:21:40.010Z,7.41
2023-01-11T21:24:07.240Z,7.40
2023-01-11T21:26:37.018Z,7.41
2023-01-11T21:29:04.447Z,7.42
2023-01-11T21:31:34.336Z,7.44
2023-01-11T21:34:01.803Z,7.45
2023-01-11T21:36:29.906Z,7.44
2023-01-11T21:38:58.354Z,7.44
2023-01-11T21:41:46.186Z,7.44
2023-01-11T21:44:14.510Z,7.47
2023-01-11T21:46:41.818Z,7.50
2023-01-11T21:49:08.983Z,7.52
2023-01-11T21:51:37.229Z,7.54
2023-01-11T21:54:06.191Z,7.54
2023-01-11T21:56:33.200Z,7.55
2023-01-11T21:58:59.831Z,7.56
2023-01-11T22:01:26.889Z,7.57
2023-01-11T22:03:53.603Z,7.58
2023-01-11T22:06:21.306Z,7.59
2023-01-11T22:08:47.866Z,7.59
2023-01-11T22:11:15.830Z,7.61
2023-01-11T22:13:43.085Z,7.63
2023-01-11T22:16:15.366Z,7.63
2023-01-11T22:18:43.065Z,7.63
2023-01-11T22:21:14.803Z,7.64
2023-01-11T22:23:41.324Z,7.65
2023-01-11T22:26:10.926Z,7.67
2023-01-11T22:28:56.414Z,7.67
2023-01-11T22:31:24.466Z,7.66
2023-01-11T22:33:51.016Z,7.65
2023-01-11T22:36:18.189Z,7.66
2023-01-11T22:38:45.980Z,7.66
2023-01-11T22:41:14.133Z,7.67
2023-01-11T22:43:44.077Z,7.67
2023-01-11T22:46:13.818Z,7.67
2023-01-11T22:48:40.471Z,7.68
2023-01-11T22:51:08.479Z,7.71
2023-01-11T22:53:38.803Z,7.73
2023-01-11T22:56:06.457Z,7.73
2023-01-11T22:58:34.250Z,7.74
2023-01-11T23:01:19.037Z,7.74
2023-01-11T23:03:45.989Z,7.73
2023-01-11T23:06:16.855Z,7.72
2023-01-11T23:08:43.757Z,7.71
2023-01-11T23:11:37.414Z,7.69
2023-01-11T23:14:06.506Z,7.69
2023-01-11T23:16:33.483Z,7.68
2023-01-11T23:19:00.477Z,7.67
2023-01-11T23:21:27.880Z,7.66
2023-01-11T23:23:54.595Z,7.66
2023-01-11T23:26:21.807Z,7.65
2023-01-11T23:28:49.323Z,7.65
2023-01-11T23:31:18.993Z,7.66
2023-01-11T23:33:47.435Z,7.66
2023-01-11T23:36:15.224Z,7.66
2023-01-11T23:38:42.297Z,7.68
2023-01-11T23:41:30.498Z,7.70
2023-01-11T23:43:57.478Z,7.72
2023-01-11T23:46:43.375Z,7.72
2023-01-11T23:49:10.841Z,7.72
2023-01-11T23:51:37.643Z,7.71
2023-01-11T23:54:06.243Z,7.71
2023-01-11T23:56:33.655Z,7.71
2023-01-11T23:59:00.675Z,7.70
